Koniz, Switzerland
Current Conditions -  °F | °C
As of 10:20 AM on Wednesday 28 Jan 2015 (Local Time) from LSZB Reporting Station
Broken Clouds Broken Clouds  
Wind Chill: 21°   Ceiling: 7500
Heat Index: 27°   Visibility: 6mi
Dew Point: 23°   Wind: 5mph
Humidity: 86%   Direction: 100°E
Pressure: 30.15"   Gusts: NA
Location:  46.93°N, 7.42°E
Report Text: LSZB 280920Z 10004KT 080V140 9999 FEW035 BKN075 M03/M05 Q1021 NOSIG
Loading
Personal Weather Stations






























Interactive Weather Map New forecast layout! Learn more

10-Day Weather Forecast

Advertisements
Track Severe Weather on mobile